sensor_id;sensor_type;location;lat;lon;timestamp;temperature;humidity
17599;DHT22;8918;52.092;5.232;2024-02-21T00:02:08;9.90;99.90
17599;DHT22;8918;52.092;5.232;2024-02-21T00:04:33;9.90;99.90
17599;DHT22;8918;52.092;5.232;2024-02-21T00:07:00;9.90;99.90
17599;DHT22;8918;52.092;5.232;2024-02-21T00:09:25;9.90;99.90
17599;DHT22;8918;52.092;5.232;2024-02-21T00:11:51;9.90;99.90
17599;DHT22;8918;52.092;5.232;2024-02-21T00:14:17;9.90;99.90
17599;DHT22;8918;52.092;5.232;2024-02-21T00:16:42;9.80;99.90
17599;DHT22;8918;52.092;5.232;2024-02-21T00:19:08;9.80;99.90
17599;DHT22;8918;52.092;5.232;2024-02-21T00:21:34;9.80;99.90
17599;DHT22;8918;52.092;5.232;2024-02-21T00:23:59;9.80;99.90
17599;DHT22;8918;52.092;5.232;2024-02-21T00:26:25;9.80;99.90
17599;DHT22;8918;52.092;5.232;2024-02-21T00:28:51;9.80;99.90
17599;DHT22;8918;52.092;5.232;2024-02-21T00:31:16;9.80;99.90
17599;DHT22;8918;52.092;5.232;2024-02-21T00:33:42;9.80;99.90
17599;DHT22;8918;52.092;5.232;2024-02-21T00:36:08;9.80;99.90
17599;DHT22;8918;52.092;5.232;2024-02-21T00:38:33;9.80;99.90
17599;DHT22;8918;52.092;5.232;2024-02-21T00:40:59;9.80;99.90
17599;DHT22;8918;52.092;5.232;2024-02-21T00:43:24;9.80;99.90
17599;DHT22;8918;52.092;5.232;2024-02-21T00:45:50;9.80;99.90
17599;DHT22;8918;52.092;5.232;2024-02-21T00:48:16;9.80;99.90
17599;DHT22;8918;52.092;5.232;2024-02-21T00:50:42;9.70;99.90
17599;DHT22;8918;52.092;5.232;2024-02-21T00:53:07;9.70;99.90
17599;DHT22;8918;52.092;5.232;2024-02-21T00:55:34;9.60;99.90
17599;DHT22;8918;52.092;5.232;2024-02-21T00:57:59;9.60;99.90
17599;DHT22;8918;52.092;5.232;2024-02-21T01:00:25;9.70;99.90
17599;DHT22;8918;52.092;5.232;2024-02-21T01:02:51;9.70;99.90
17599;DHT22;8918;52.092;5.232;2024-02-21T01:05:16;9.80;99.90
17599;DHT22;8918;52.092;5.232;2024-02-21T01:07:42;9.80;99.90
17599;DHT22;8918;52.092;5.232;2024-02-21T01:10:08;9.70;99.90
17599;DHT22;8918;52.092;5.232;2024-02-21T01:12:34;9.70;99.90
17599;DHT22;8918;52.092;5.232;2024-02-21T01:14:59;9.70;99.90
17599;DHT22;8918;52.092;5.232;2024-02-21T01:17:25;9.80;99.90
17599;DHT22;8918;52.092;5.232;2024-02-21T01:19:51;9.80;99.90
17599;DHT22;8918;52.092;5.232;2024-02-21T01:22:18;9.80;99.90
17599;DHT22;8918;52.092;5.232;2024-02-21T01:24:43;9.80;99.90
17599;DHT22;8918;52.092;5.232;2024-02-21T01:27:09;9.80;99.90
17599;DHT22;8918;52.092;5.232;2024-02-21T01:29:35;9.80;99.90
17599;DHT22;8918;52.092;5.232;2024-02-21T01:32:00;9.80;99.90
17599;DHT22;8918;52.092;5.232;2024-02-21T01:34:26;9.80;99.90
17599;DHT22;8918;52.092;5.232;2024-02-21T01:36:52;9.80;99.90
17599;DHT22;8918;52.092;5.232;2024-02-21T01:39:18;9.80;99.90
17599;DHT22;8918;52.092;5.232;2024-02-21T01:41:44;9.80;99.90
17599;DHT22;8918;52.092;5.232;2024-02-21T01:44:09;9.80;99.90
17599;DHT22;8918;52.092;5.232;2024-02-21T01:46:35;9.70;99.90
17599;DHT22;8918;52.092;5.232;2024-02-21T01:49:01;9.70;99.90
17599;DHT22;8918;52.092;5.232;2024-02-21T01:51:27;9.80;99.90
17599;DHT22;8918;52.092;5.232;2024-02-21T01:53:54;9.70;99.90
17599;DHT22;8918;52.092;5.232;2024-02-21T01:56:20;9.80;99.90
17599;DHT22;8918;52.092;5.232;2024-02-21T01:58:48;9.80;99.90
17599;DHT22;8918;52.092;5.232;2024-02-21T02:01:14;9.80;99.90
17599;DHT22;8918;52.092;5.232;2024-02-21T02:03:39;9.80;99.90
17599;DHT22;8918;52.092;5.232;2024-02-21T02:06:06;9.70;99.90
17599;DHT22;8918;52.092;5.232;2024-02-21T02:08:32;9.60;99.90
17599;DHT22;8918;52.092;5.232;2024-02-21T02:10:59;9.70;99.90
17599;DHT22;8918;52.092;5.232;2024-02-21T02:13:24;9.70;99.90
17599;DHT22;8918;52.092;5.232;2024-02-21T02:15:50;9.80;99.90
17599;DHT22;8918;52.092;5.232;2024-02-21T02:18:17;9.70;99.90
17599;DHT22;8918;52.092;5.232;2024-02-21T02:20:47;9.80;99.90
17599;DHT22;8918;52.092;5.232;2024-02-21T02:23:25;9.70;99.90
17599;DHT22;8918;52.092;5.232;2024-02-21T02:25:51;9.70;99.90
17599;DHT22;8918;52.092;5.232;2024-02-21T02:28:20;9.70;99.90
17599;DHT22;8918;52.092;5.232;2024-02-21T02:30:46;9.70;99.90
17599;DHT22;8918;52.092;5.232;2024-02-21T02:33:12;9.70;99.90
17599;DHT22;8918;52.092;5.232;2024-02-21T02:35:37;9.70;99.90
17599;DHT22;8918;52.092;5.232;2024-02-21T02:38:04;9.70;99.90
17599;DHT22;8918;52.092;5.232;2024-02-21T02:40:30;9.70;99.90
17599;DHT22;8918;52.092;5.232;2024-02-21T02:42:56;9.70;99.90
17599;DHT22;8918;52.092;5.232;2024-02-21T02:45:23;9.70;99.90
17599;DHT22;8918;52.092;5.232;2024-02-21T02:47:55;9.70;99.90
17599;DHT22;8918;52.092;5.232;2024-02-21T02:50:25;9.70;99.90
17599;DHT22;8918;52.092;5.232;2024-02-21T02:52:51;9.70;99.90
17599;DHT22;8918;52.092;5.232;2024-02-21T02:55:17;9.70;99.90
17599;DHT22;8918;52.092;5.232;2024-02-21T02:57:43;9.70;99.90
17599;DHT22;8918;52.092;5.232;2024-02-21T03:00:11;9.70;99.90
17599;DHT22;8918;52.092;5.232;2024-02-21T03:02:38;9.70;99.90
17599;DHT22;8918;52.092;5.232;2024-02-21T03:05:18;9.70;99.90
17599;DHT22;8918;52.092;5.232;2024-02-21T03:07:44;9.70;99.90
17599;DHT22;8918;52.092;5.232;2024-02-21T03:10:11;9.70;99.90
17599;DHT22;8918;52.092;5.232;2024-02-21T03:12:36;9.70;99.90
17599;DHT22;8918;52.092;5.232;2024-02-21T03:15:03;9.70;99.90
17599;DHT22;8918;52.092;5.232;2024-02-21T03:17:30;9.70;99.90
17599;DHT22;8918;52.092;5.232;2024-02-21T03:19:55;9.60;99.90
17599;DHT22;8918;52.092;5.232;2024-02-21T03:22:22;9.60;99.90
17599;DHT22;8918;52.092;5.232;2024-02-21T03:24:47;9.60;99.90
17599;DHT22;8918;52.092;5.232;2024-02-21T03:27:13;9.60;99.90
17599;DHT22;8918;52.092;5.232;2024-02-21T03:29:39;9.60;99.90
17599;DHT22;8918;52.092;5.232;2024-02-21T03:32:04;9.60;99.90
17599;DHT22;8918;52.092;5.232;2024-02-21T03:34:30;9.60;99.90
17599;DHT22;8918;52.092;5.232;2024-02-21T03:36:56;9.60;99.90
17599;DHT22;8918;52.092;5.232;2024-02-21T03:39:21;9.60;99.90
17599;DHT22;8918;52.092;5.232;2024-02-21T03:41:47;9.60;99.90
17599;DHT22;8918;52.092;5.232;2024-02-21T03:44:13;9.60;99.90
17599;DHT22;8918;52.092;5.232;2024-02-21T03:46:39;9.60;99.90
17599;DHT22;8918;52.092;5.232;2024-02-21T03:49:04;9.60;99.90
17599;DHT22;8918;52.092;5.232;2024-02-21T03:51:30;9.60;99.90
17599;DHT22;8918;52.092;5.232;2024-02-21T03:53:56;9.60;99.90
17599;DHT22;8918;52.092;5.232;2024-02-21T03:56:22;9.50;99.90
17599;DHT22;8918;52.092;5.232;2024-02-21T03:58:47;9.60;99.90
17599;DHT22;8918;52.092;5.232;2024-02-21T04:01:15;9.50;99.90
17599;DHT22;8918;52.092;5.232;2024-02-21T04:03:41;9.50;99.90
17599;DHT22;8918;52.092;5.232;2024-02-21T04:06:07;9.50;99.90
17599;DHT22;8918;52.092;5.232;2024-02-21T04:08:33;9.50;99.90
17599;DHT22;8918;52.092;5.232;2024-02-21T04:10:59;9.50;99.90
17599;DHT22;8918;52.092;5.232;2024-02-21T04:13:24;9.50;99.90
17599;DHT22;8918;52.092;5.232;2024-02-21T04:15:51;9.50;99.90
17599;DHT22;8918;52.092;5.232;2024-02-21T04:18:16;9.50;99.90
17599;DHT22;8918;52.092;5.232;2024-02-21T04:20:42;9.40;99.90
17599;DHT22;8918;52.092;5.232;2024-02-21T04:23:07;9.40;99.90
17599;DHT22;8918;52.092;5.232;2024-02-21T04:25:33;9.50;99.90
17599;DHT22;8918;52.092;5.232;2024-02-21T04:27:59;9.40;99.90
17599;DHT22;8918;52.092;5.232;2024-02-21T04:30:25;9.40;99.90
17599;DHT22;8918;52.092;5.232;2024-02-21T04:32:50;9.40;99.90
17599;DHT22;8918;52.092;5.232;2024-02-21T04:35:16;9.40;99.90
17599;DHT22;8918;52.092;5.232;2024-02-21T04:37:42;9.40;99.90
17599;DHT22;8918;52.092;5.232;2024-02-21T04:40:08;9.40;99.90
17599;DHT22;8918;52.092;5.232;2024-02-21T04:42:34;9.40;99.90
17599;DHT22;8918;52.092;5.232;2024-02-21T04:45:00;9.50;99.90
17599;DHT22;8918;52.092;5.232;2024-02-21T04:47:27;9.40;99.90
17599;DHT22;8918;52.092;5.232;2024-02-21T04:49:52;9.50;99.90
17599;DHT22;8918;52.092;5.232;2024-02-21T04:52:18;9.40;99.90
17599;DHT22;8918;52.092;5.232;2024-02-21T04:54:44;9.40;99.90
17599;DHT22;8918;52.092;5.232;2024-02-21T04:57:09;9.40;99.90
17599;DHT22;8918;52.092;5.232;2024-02-21T04:59:36;9.40;99.90
17599;DHT22;8918;52.092;5.232;2024-02-21T05:02:02;9.40;99.90
17599;DHT22;8918;52.092;5.232;2024-02-21T05:04:27;9.40;99.90
17599;DHT22;8918;52.092;5.232;2024-02-21T05:06:53;9.40;99.90
17599;DHT22;8918;52.092;5.232;2024-02-21T05:09:20;9.40;99.90
17599;DHT22;8918;52.092;5.232;2024-02-21T05:11:45;9.50;99.90
17599;DHT22;8918;52.092;5.232;2024-02-21T05:14:11;9.50;99.90
17599;DHT22;8918;52.092;5.232;2024-02-21T05:16:38;9.50;99.90
17599;DHT22;8918;52.092;5.232;2024-02-21T05:19:05;9.50;99.90
17599;DHT22;8918;52.092;5.232;2024-02-21T05:21:30;9.50;99.90
17599;DHT22;8918;52.092;5.232;2024-02-21T05:23:59;9.50;99.90
17599;DHT22;8918;52.092;5.232;2024-02-21T05:26:26;9.40;99.90
17599;DHT22;8918;52.092;5.232;2024-02-21T05:28:52;9.50;99.90
17599;DHT22;8918;52.092;5.232;2024-02-21T05:31:19;9.50;99.90
17599;DHT22;8918;52.092;5.232;2024-02-21T05:33:45;9.50;99.90
17599;DHT22;8918;52.092;5.232;2024-02-21T05:36:11;9.50;99.90
17599;DHT22;8918;52.092;5.232;2024-02-21T05:38:37;9.50;99.90
17599;DHT22;8918;52.092;5.232;2024-02-21T05:41:03;9.50;99.90
17599;DHT22;8918;52.092;5.232;2024-02-21T05:43:29;9.50;99.90
17599;DHT22;8918;52.092;5.232;2024-02-21T05:45:55;9.50;99.90
17599;DHT22;8918;52.092;5.232;2024-02-21T05:48:21;9.40;99.90
17599;DHT22;8918;52.092;5.232;2024-02-21T05:50:47;9.40;99.90
17599;DHT22;8918;52.092;5.232;2024-02-21T05:53:12;9.40;99.90
17599;DHT22;8918;52.092;5.232;2024-02-21T05:55:39;9.50;99.90
17599;DHT22;8918;52.092;5.232;2024-02-21T05:58:04;9.40;99.90
17599;DHT22;8918;52.092;5.232;2024-02-21T06:00:31;9.30;99.90
17599;DHT22;8918;52.092;5.232;2024-02-21T06:02:57;9.30;99.90
17599;DHT22;8918;52.092;5.232;2024-02-21T06:05:23;9.40;99.90
17599;DHT22;8918;52.092;5.232;2024-02-21T06:07:48;9.40;99.90
17599;DHT22;8918;52.092;5.232;2024-02-21T06:10:14;9.40;99.90
17599;DHT22;8918;52.092;5.232;2024-02-21T06:12:40;9.40;99.90
17599;DHT22;8918;52.092;5.232;2024-02-21T06:15:06;9.40;99.90
17599;DHT22;8918;52.092;5.232;2024-02-21T06:17:31;9.30;99.90
17599;DHT22;8918;52.092;5.232;2024-02-21T06:19:57;9.30;99.90
17599;DHT22;8918;52.092;5.232;2024-02-21T06:22:23;9.30;99.90
17599;DHT22;8918;52.092;5.232;2024-02-21T06:24:48;9.30;99.90
17599;DHT22;8918;52.092;5.232;2024-02-21T06:27:14;9.30;99.90
17599;DHT22;8918;52.092;5.232;2024-02-21T06:29:41;9.30;99.90
17599;DHT22;8918;52.092;5.232;2024-02-21T06:32:07;9.30;99.90
17599;DHT22;8918;52.092;5.232;2024-02-21T06:34:33;9.30;99.90
17599;DHT22;8918;52.092;5.232;2024-02-21T06:36:58;9.30;99.90
17599;DHT22;8918;52.092;5.232;2024-02-21T06:39:24;9.30;99.90
17599;DHT22;8918;52.092;5.232;2024-02-21T06:41:50;9.30;99.90
17599;DHT22;8918;52.092;5.232;2024-02-21T06:44:19;9.20;99.90
17599;DHT22;8918;52.092;5.232;2024-02-21T06:46:45;9.20;99.90
17599;DHT22;8918;52.092;5.232;2024-02-21T06:49:10;9.20;99.90
17599;DHT22;8918;52.092;5.232;2024-02-21T06:51:42;9.20;99.90
17599;DHT22;8918;52.092;5.232;2024-02-21T06:54:08;9.20;99.90
17599;DHT22;8918;52.092;5.232;2024-02-21T06:56:35;9.20;99.90
17599;DHT22;8918;52.092;5.232;2024-02-21T06:59:01;9.20;99.90
17599;DHT22;8918;52.092;5.232;2024-02-21T07:01:29;9.20;99.90
17599;DHT22;8918;52.092;5.232;2024-02-21T07:03:54;9.20;99.90
17599;DHT22;8918;52.092;5.232;2024-02-21T07:06:20;9.20;99.90
17599;DHT22;8918;52.092;5.232;2024-02-21T07:08:45;9.20;99.90
17599;DHT22;8918;52.092;5.232;2024-02-21T07:11:11;9.20;99.90
17599;DHT22;8918;52.092;5.232;2024-02-21T07:13:36;9.20;99.90
17599;DHT22;8918;52.092;5.232;2024-02-21T07:16:02;9.20;99.90
17599;DHT22;8918;52.092;5.232;2024-02-21T07:18:28;9.10;99.90
17599;DHT22;8918;52.092;5.232;2024-02-21T07:20:53;9.10;99.90
17599;DHT22;8918;52.092;5.232;2024-02-21T07:23:19;9.10;99.90
17599;DHT22;8918;52.092;5.232;2024-02-21T07:25:45;9.10;99.90
17599;DHT22;8918;52.092;5.232;2024-02-21T07:28:10;9.10;99.90
17599;DHT22;8918;52.092;5.232;2024-02-21T07:30:36;9.10;99.90
17599;DHT22;8918;52.092;5.232;2024-02-21T07:33:02;9.10;99.90
17599;DHT22;8918;52.092;5.232;2024-02-21T07:35:27;9.10;99.90
17599;DHT22;8918;52.092;5.232;2024-02-21T07:37:53;9.10;99.90
17599;DHT22;8918;52.092;5.232;2024-02-21T07:40:19;9.20;99.90
17599;DHT22;8918;52.092;5.232;2024-02-21T07:42:44;9.20;99.90
17599;DHT22;8918;52.092;5.232;2024-02-21T07:45:10;9.10;99.90
17599;DHT22;8918;52.092;5.232;2024-02-21T07:47:36;9.10;99.90
17599;DHT22;8918;52.092;5.232;2024-02-21T07:50:03;9.10;99.90
17599;DHT22;8918;52.092;5.232;2024-02-21T07:52:29;9.10;99.90
17599;DHT22;8918;52.092;5.232;2024-02-21T07:54:55;9.10;99.90
17599;DHT22;8918;52.092;5.232;2024-02-21T07:57:20;9.10;99.90
17599;DHT22;8918;52.092;5.232;2024-02-21T07:59:47;9.10;99.90
17599;DHT22;8918;52.092;5.232;2024-02-21T08:02:16;9.10;99.90
17599;DHT22;8918;52.092;5.232;2024-02-21T08:04:42;9.10;99.90
17599;DHT22;8918;52.092;5.232;2024-02-21T08:07:09;9.20;99.90
17599;DHT22;8918;52.092;5.232;2024-02-21T08:09:35;9.20;99.90
17599;DHT22;8918;52.092;5.232;2024-02-21T08:12:03;9.20;99.90
17599;DHT22;8918;52.092;5.232;2024-02-21T08:14:29;9.20;99.90
17599;DHT22;8918;52.092;5.232;2024-02-21T08:16:55;9.20;99.90
17599;DHT22;8918;52.092;5.232;2024-02-21T08:19:21;9.20;99.90
17599;DHT22;8918;52.092;5.232;2024-02-21T08:21:50;9.20;99.90
17599;DHT22;8918;52.092;5.232;2024-02-21T08:24:16;9.20;99.90
17599;DHT22;8918;52.092;5.232;2024-02-21T08:26:43;9.20;99.90
17599;DHT22;8918;52.092;5.232;2024-02-21T08:29:10;9.20;99.90
17599;DHT22;8918;52.092;5.232;2024-02-21T08:31:37;9.20;99.90
17599;DHT22;8918;52.092;5.232;2024-02-21T08:34:03;9.20;99.90
17599;DHT22;8918;52.092;5.232;2024-02-21T08:36:35;9.20;99.90
17599;DHT22;8918;52.092;5.232;2024-02-21T08:39:02;9.20;99.90
17599;DHT22;8918;52.092;5.232;2024-02-21T08:41:31;9.30;99.90
17599;DHT22;8918;52.092;5.232;2024-02-21T08:43:57;9.30;99.90
17599;DHT22;8918;52.092;5.232;2024-02-21T08:46:23;9.30;99.90
17599;DHT22;8918;52.092;5.232;2024-02-21T08:48:52;9.30;99.90
17599;DHT22;8918;52.092;5.232;2024-02-21T08:51:18;9.30;99.90
17599;DHT22;8918;52.092;5.232;2024-02-21T08:53:44;9.30;99.90
17599;DHT22;8918;52.092;5.232;2024-02-21T08:56:10;9.40;99.90
17599;DHT22;8918;52.092;5.232;2024-02-21T08:58:36;9.40;99.90
17599;DHT22;8918;52.092;5.232;2024-02-21T09:01:05;9.40;99.90
17599;DHT22;8918;52.092;5.232;2024-02-21T09:03:33;9.40;99.90
17599;DHT22;8918;52.092;5.232;2024-02-21T09:05:59;9.40;99.90
17599;DHT22;8918;52.092;5.232;2024-02-21T09:08:25;9.50;99.90
17599;DHT22;8918;52.092;5.232;2024-02-21T09:10:52;9.50;99.90
17599;DHT22;8918;52.092;5.232;2024-02-21T09:13:18;9.50;99.90
17599;DHT22;8918;52.092;5.232;2024-02-21T09:15:43;9.60;99.90
17599;DHT22;8918;52.092;5.232;2024-02-21T09:18:09;9.50;99.90
17599;DHT22;8918;52.092;5.232;2024-02-21T09:20:35;9.60;99.90
17599;DHT22;8918;52.092;5.232;2024-02-21T09:23:01;9.60;99.90
17599;DHT22;8918;52.092;5.232;2024-02-21T09:25:26;9.60;99.90
17599;DHT22;8918;52.092;5.232;2024-02-21T09:27:54;9.60;99.90
17599;DHT22;8918;52.092;5.232;2024-02-21T09:30:20;9.60;99.90
17599;DHT22;8918;52.092;5.232;2024-02-21T09:32:46;9.60;99.90
17599;DHT22;8918;52.092;5.232;2024-02-21T09:35:11;9.60;99.90
17599;DHT22;8918;52.092;5.232;2024-02-21T09:37:41;9.70;99.90
17599;DHT22;8918;52.092;5.232;2024-02-21T09:40:07;9.70;99.90
17599;DHT22;8918;52.092;5.232;2024-02-21T09:42:37;9.80;99.90
17599;DHT22;8918;52.092;5.232;2024-02-21T09:45:28;9.80;99.90
17599;DHT22;8918;52.092;5.232;2024-02-21T09:50:34;9.70;99.90
17599;DHT22;8918;52.092;5.232;2024-02-21T09:53:04;9.80;99.90
17599;DHT22;8918;52.092;5.232;2024-02-21T09:55:33;9.80;99.90
17599;DHT22;8918;52.092;5.232;2024-02-21T09:58:01;9.90;99.90
17599;DHT22;8918;52.092;5.232;2024-02-21T10:00:27;9.90;99.90
17599;DHT22;8918;52.092;5.232;2024-02-21T10:02:53;9.90;99.90
17599;DHT22;8918;52.092;5.232;2024-02-21T10:05:19;10.00;99.90
17599;DHT22;8918;52.092;5.232;2024-02-21T10:07:45;10.00;99.90
17599;DHT22;8918;52.092;5.232;2024-02-21T10:10:11;10.00;99.90
17599;DHT22;8918;52.092;5.232;2024-02-21T10:12:36;10.10;99.90
17599;DHT22;8918;52.092;5.232;2024-02-21T10:15:02;10.10;99.90
17599;DHT22;8918;52.092;5.232;2024-02-21T10:17:28;10.20;99.90
17599;DHT22;8918;52.092;5.232;2024-02-21T10:19:54;10.20;99.90
17599;DHT22;8918;52.092;5.232;2024-02-21T10:22:19;10.20;99.90
17599;DHT22;8918;52.092;5.232;2024-02-21T10:24:48;10.30;99.90
17599;DHT22;8918;52.092;5.232;2024-02-21T10:27:14;10.30;99.90
17599;DHT22;8918;52.092;5.232;2024-02-21T10:29:40;10.40;99.90
17599;DHT22;8918;52.092;5.232;2024-02-21T10:32:11;10.50;99.90
17599;DHT22;8918;52.092;5.232;2024-02-21T10:34:38;10.40;99.90
17599;DHT22;8918;52.092;5.232;2024-02-21T10:37:07;10.40;99.90
17599;DHT22;8918;52.092;5.232;2024-02-21T10:39:34;10.50;99.90
17599;DHT22;8918;52.092;5.232;2024-02-21T10:42:01;10.60;99.90
17599;DHT22;8918;52.092;5.232;2024-02-21T10:44:32;10.50;99.90
17599;DHT22;8918;52.092;5.232;2024-02-21T10:46:58;10.60;99.90
17599;DHT22;8918;52.092;5.232;2024-02-21T10:49:29;10.60;99.90
17599;DHT22;8918;52.092;5.232;2024-02-21T10:52:24;10.60;99.90
17599;DHT22;8918;52.092;5.232;2024-02-21T10:54:58;10.70;99.90
17599;DHT22;8918;52.092;5.232;2024-02-21T10:57:26;10.70;99.90
17599;DHT22;8918;52.092;5.232;2024-02-21T10:59:53;10.70;99.90
17599;DHT22;8918;52.092;5.232;2024-02-21T11:02:20;10.60;99.90
17599;DHT22;8918;52.092;5.232;2024-02-21T11:04:46;10.60;99.90
17599;DHT22;8918;52.092;5.232;2024-02-21T11:07:12;10.60;99.90
17599;DHT22;8918;52.092;5.232;2024-02-21T11:09:38;10.50;99.90
17599;DHT22;8918;52.092;5.232;2024-02-21T11:12:06;10.50;99.90
17599;DHT22;8918;52.092;5.232;2024-02-21T11:14:32;10.40;99.90
17599;DHT22;8918;52.092;5.232;2024-02-21T11:16:58;10.40;99.90
17599;DHT22;8918;52.092;5.232;2024-02-21T11:19:28;10.30;99.90
17599;DHT22;8918;52.092;5.232;2024-02-21T11:21:55;10.30;99.90
17599;DHT22;8918;52.092;5.232;2024-02-21T11:27:18;10.20;99.90
17599;DHT22;8918;52.092;5.232;2024-02-21T11:29:49;10.10;99.90
17599;DHT22;8918;52.092;5.232;2024-02-21T11:32:20;10.10;99.90
17599;DHT22;8918;52.092;5.232;2024-02-21T11:35:02;10.10;99.90
17599;DHT22;8918;52.092;5.232;2024-02-21T11:37:30;10.10;99.90
17599;DHT22;8918;52.092;5.232;2024-02-21T11:39:58;10.10;99.90
17599;DHT22;8918;52.092;5.232;2024-02-21T11:42:25;10.00;99.90
17599;DHT22;8918;52.092;5.232;2024-02-21T11:44:52;10.00;99.90
17599;DHT22;8918;52.092;5.232;2024-02-21T11:47:18;10.00;99.90
17599;DHT22;8918;52.092;5.232;2024-02-21T11:49:46;10.10;99.90
17599;DHT22;8918;52.092;5.232;2024-02-21T11:52:12;10.10;99.90
17599;DHT22;8918;52.092;5.232;2024-02-21T11:54:40;10.20;99.90
17599;DHT22;8918;52.092;5.232;2024-02-21T11:57:06;10.30;99.90
17599;DHT22;8918;52.092;5.232;2024-02-21T11:59:33;10.40;99.90
17599;DHT22;8918;52.092;5.232;2024-02-21T12:01:59;10.60;99.90
17599;DHT22;8918;52.092;5.232;2024-02-21T12:04:26;10.70;99.90
17599;DHT22;8918;52.092;5.232;2024-02-21T12:06:53;10.80;99.90
17599;DHT22;8918;52.092;5.232;2024-02-21T12:09:22;10.90;99.90
17599;DHT22;8918;52.092;5.232;2024-02-21T12:12:03;10.90;99.90
17599;DHT22;8918;52.092;5.232;2024-02-21T12:14:30;11.00;99.90
17599;DHT22;8918;52.092;5.232;2024-02-21T12:16:57;11.00;99.90
17599;DHT22;8918;52.092;5.232;2024-02-21T12:19:23;10.90;99.90
17599;DHT22;8918;52.092;5.232;2024-02-21T12:21:49;10.80;99.90
17599;DHT22;8918;52.092;5.232;2024-02-21T12:24:23;10.80;99.90
17599;DHT22;8918;52.092;5.232;2024-02-21T12:26:52;10.80;99.90
17599;DHT22;8918;52.092;5.232;2024-02-21T12:29:19;10.80;99.90
17599;DHT22;8918;52.092;5.232;2024-02-21T12:31:45;10.90;99.90
17599;DHT22;8918;52.092;5.232;2024-02-21T12:34:11;10.90;99.90
17599;DHT22;8918;52.092;5.232;2024-02-21T12:36:41;10.90;99.90
17599;DHT22;8918;52.092;5.232;2024-02-21T12:39:13;10.90;99.90
17599;DHT22;8918;52.092;5.232;2024-02-21T12:41:39;10.90;99.90
17599;DHT22;8918;52.092;5.232;2024-02-21T12:44:06;11.00;99.90
17599;DHT22;8918;52.092;5.232;2024-02-21T12:46:33;11.00;99.90
17599;DHT22;8918;52.092;5.232;2024-02-21T12:48:59;11.00;99.90
17599;DHT22;8918;52.092;5.232;2024-02-21T12:51:25;11.00;99.90
17599;DHT22;8918;52.092;5.232;2024-02-21T12:53:50;11.00;99.90
17599;DHT22;8918;52.092;5.232;2024-02-21T12:56:16;11.00;99.90
17599;DHT22;8918;52.092;5.232;2024-02-21T12:58:42;10.90;99.90
17599;DHT22;8918;52.092;5.232;2024-02-21T13:01:08;10.90;99.90
17599;DHT22;8918;52.092;5.232;2024-02-21T13:03:34;10.90;99.90
17599;DHT22;8918;52.092;5.232;2024-02-21T13:06:01;11.00;99.90
17599;DHT22;8918;52.092;5.232;2024-02-21T13:08:26;11.00;99.90
17599;DHT22;8918;52.092;5.232;2024-02-21T13:10:52;11.10;99.90
17599;DHT22;8918;52.092;5.232;2024-02-21T13:13:18;11.10;99.90
17599;DHT22;8918;52.092;5.232;2024-02-21T13:15:44;11.20;99.90
17599;DHT22;8918;52.092;5.232;2024-02-21T13:18:09;11.20;99.90
17599;DHT22;8918;52.092;5.232;2024-02-21T13:20:36;11.10;99.90
17599;DHT22;8918;52.092;5.232;2024-02-21T13:23:02;11.10;99.90
17599;DHT22;8918;52.092;5.232;2024-02-21T13:25:27;11.10;99.90
17599;DHT22;8918;52.092;5.232;2024-02-21T13:27:53;11.10;99.90
17599;DHT22;8918;52.092;5.232;2024-02-21T13:30:19;11.00;99.90
17599;DHT22;8918;52.092;5.232;2024-02-21T13:32:44;11.00;99.90
17599;DHT22;8918;52.092;5.232;2024-02-21T13:35:13;10.90;99.90
17599;DHT22;8918;52.092;5.232;2024-02-21T13:37:42;10.90;99.90
17599;DHT22;8918;52.092;5.232;2024-02-21T13:40:09;10.80;99.90
17599;DHT22;8918;52.092;5.232;2024-02-21T13:42:35;10.90;99.90
17599;DHT22;8918;52.092;5.232;2024-02-21T13:45:03;10.90;99.90
17599;DHT22;8918;52.092;5.232;2024-02-21T13:47:31;10.90;99.90
17599;DHT22;8918;52.092;5.232;2024-02-21T13:49:57;10.90;99.90
17599;DHT22;8918;52.092;5.232;2024-02-21T13:52:22;10.90;99.90
17599;DHT22;8918;52.092;5.232;2024-02-21T13:54:50;10.90;99.90
17599;DHT22;8918;52.092;5.232;2024-02-21T13:57:16;10.90;99.90
17599;DHT22;8918;52.092;5.232;2024-02-21T13:59:41;10.90;99.90
17599;DHT22;8918;52.092;5.232;2024-02-21T14:02:08;10.90;99.90
17599;DHT22;8918;52.092;5.232;2024-02-21T14:04:34;10.90;99.90
17599;DHT22;8918;52.092;5.232;2024-02-21T14:07:00;10.90;99.90
17599;DHT22;8918;52.092;5.232;2024-02-21T14:09:26;10.90;99.90
17599;DHT22;8918;52.092;5.232;2024-02-21T14:11:52;10.80;99.90
17599;DHT22;8918;52.092;5.232;2024-02-21T14:14:18;10.80;99.90
17599;DHT22;8918;52.092;5.232;2024-02-21T14:16:43;10.80;99.90
17599;DHT22;8918;52.092;5.232;2024-02-21T14:19:09;10.90;99.90
17599;DHT22;8918;52.092;5.232;2024-02-21T14:21:37;10.90;99.90
17599;DHT22;8918;52.092;5.232;2024-02-21T14:24:04;10.90;99.90
17599;DHT22;8918;52.092;5.232;2024-02-21T14:26:30;10.90;99.90
17599;DHT22;8918;52.092;5.232;2024-02-21T14:28:57;10.90;99.90
17599;DHT22;8918;52.092;5.232;2024-02-21T14:31:23;10.90;99.90
17599;DHT22;8918;52.092;5.232;2024-02-21T14:33:48;10.90;99.90
17599;DHT22;8918;52.092;5.232;2024-02-21T14:36:14;10.80;99.90
17599;DHT22;8918;52.092;5.232;2024-02-21T14:38:41;10.80;99.90
17599;DHT22;8918;52.092;5.232;2024-02-21T14:41:07;10.80;99.90
17599;DHT22;8918;52.092;5.232;2024-02-21T14:43:32;10.70;99.90
17599;DHT22;8918;52.092;5.232;2024-02-21T14:46:00;10.60;99.90
17599;DHT22;8918;52.092;5.232;2024-02-21T14:48:25;10.60;99.90
17599;DHT22;8918;52.092;5.232;2024-02-21T14:50:54;10.60;99.90
17599;DHT22;8918;52.092;5.232;2024-02-21T14:53:19;10.50;99.90
17599;DHT22;8918;52.092;5.232;2024-02-21T14:55:45;10.50;99.90
17599;DHT22;8918;52.092;5.232;2024-02-21T14:58:11;10.40;99.90
17599;DHT22;8918;52.092;5.232;2024-02-21T15:00:36;10.30;99.90
17599;DHT22;8918;52.092;5.232;2024-02-21T15:03:02;10.20;99.90
17599;DHT22;8918;52.092;5.232;2024-02-21T15:05:28;10.20;99.90
17599;DHT22;8918;52.092;5.232;2024-02-21T15:07:56;10.10;99.90
17599;DHT22;8918;52.092;5.232;2024-02-21T15:10:23;10.10;99.90
17599;DHT22;8918;52.092;5.232;2024-02-21T15:12:48;10.00;99.90
17599;DHT22;8918;52.092;5.232;2024-02-21T15:15:14;10.00;99.90
17599;DHT22;8918;52.092;5.232;2024-02-21T15:17:40;9.90;99.90
17599;DHT22;8918;52.092;5.232;2024-02-21T15:20:06;9.90;99.90
17599;DHT22;8918;52.092;5.232;2024-02-21T15:22:36;9.90;99.90
17599;DHT22;8918;52.092;5.232;2024-02-21T15:25:02;9.90;99.90
17599;DHT22;8918;52.092;5.232;2024-02-21T15:27:30;9.80;99.90
17599;DHT22;8918;52.092;5.232;2024-02-21T15:29:56;9.80;99.90
17599;DHT22;8918;52.092;5.232;2024-02-21T15:32:23;9.80;99.90
17599;DHT22;8918;52.092;5.232;2024-02-21T15:34:49;9.70;99.90
17599;DHT22;8918;52.092;5.232;2024-02-21T15:37:14;9.70;99.90
17599;DHT22;8918;52.092;5.232;2024-02-21T15:39:41;9.70;99.90
17599;DHT22;8918;52.092;5.232;2024-02-21T15:42:09;9.70;99.90
17599;DHT22;8918;52.092;5.232;2024-02-21T15:44:35;9.70;99.90
17599;DHT22;8918;52.092;5.232;2024-02-21T15:47:01;9.60;99.90
17599;DHT22;8918;52.092;5.232;2024-02-21T15:49:26;9.50;99.90
17599;DHT22;8918;52.092;5.232;2024-02-21T15:51:52;9.50;99.90
17599;DHT22;8918;52.092;5.232;2024-02-21T15:54:19;9.50;99.90
17599;DHT22;8918;52.092;5.232;2024-02-21T15:56:47;9.50;99.90
17599;DHT22;8918;52.092;5.232;2024-02-21T15:59:13;9.50;99.90